KBYS/BYS METAR and TAF weather

Enter ICAO airport designator
Station Type Date Time Source
KBYS METAR 2019/08/21 22:58 UTC NOAA

KBYS 212258Z AUTO 14011G16KT 10SM CLR 39/M10 A2980 RMK AO2 SLP057 T03881105 $


Station Type Date Time Source
KBYS Decoded METAR 2019/08/21 22:58 UTC NOAA

Station name not available
Aug 21, 2019 - 06:58 PM EDT / 2019.08.21 2258 UTC
Wind: from the SE (140 degrees) at 13 MPH (11 KT) gusting to 18 MPH (16 KT):0
Visibility: 10 mile(s):0
Sky conditions: clear
Temperature: 101.8 F (38.8 C)
Dew Point: 13.1 F (-10.5 C)
Relative Humidity: 3%
Pressure (altimeter): 29.8 in. Hg (1009 hPa)
ob: KBYS 212258Z AUTO 14011G16KT 10SM CLR 39/M10 A2980 RMK AO2 SLP057 T03881105
cycle: 23

Station Type Date Time Source
KBYS TAF 2011/12/24 07:07 UTC NOAA

TAF KBYS 250707 04010G15KT 9999 FEW250 QNH3014INS
BECMG 1213 06010KT 9999 FEW250 QNH3014INS
BECMG 1819 08010KT 9999 FEW250 QNH3023INS T14/23Z T02/14Z
BECMG 0001 VRB05KT 9999 FEW250 QNH3018INS
BECMG 0607 27005KT 9999 FEW200 QNH3014INS
BECMG 1213 27010KT 9999 SCT200 SCT200 QNH3014INS
BECMG 1819 27010G15KT 9999 SCT200 QNH3023INS T15/23Z T03/14Z
BECMG 0001 27010G15KT 9999 SCT200 QNH3018INS
BECMG 0607 27010KT 9999 FEW200 QNH3014INS
BECMG 1213 27010KT 9999 FEW200 QNH3014INS
BECMG 1819 29010G15KT 9999 FEW250 QNH3023INS T16/23Z T04/14Z
BECMG 0001 33010G15KT 9999 FEW250 QNH3018INS
BECMG 0607 33010KT 9999 SCT250 QNH3014INS
BECMG 1213 36010KT 9999 SCT250 QNH3014INS
BECMG 1819 02010KT 9999 SCT250 QNH3023INS T16/23Z T05/14Z
BECMG 0001 04010KT 9999 SCT250 QNH3018INS
BECMG 0607 04010KT 9999 FEW250 QNH3014INS
BECMG 1213 04010KT 9999 FEW250 QNH3014INS
BECMG 1819 04010G15KT 9999 FEW250 QNH3023INS T16/23Z T05/14Z
BECMG 0001 04010G15KT 9999 FEW250 QNH3018INS

Example: see airport list